createdAt,value
2023-04-29T00:00:22.655Z,13.08
2023-04-29T00:01:22.650Z,13.22
2023-04-29T00:02:22.858Z,13.19
2023-04-29T00:03:23.810Z,13.13
2023-04-29T00:04:22.833Z,13.18
2023-04-29T00:05:22.864Z,13.19
2023-04-29T00:06:22.715Z,13.18
2023-04-29T00:07:22.630Z,13.16
2023-04-29T00:08:22.621Z,13.08
2023-04-29T00:09:23.624Z,13.15
2023-04-29T00:10:23.214Z,13.16
2023-04-29T00:11:22.656Z,13.18
2023-04-29T00:12:22.613Z,13.15
2023-04-29T00:13:22.621Z,13.16
2023-04-29T00:14:22.606Z,13.12
2023-04-29T00:15:23.606Z,13.09
2023-04-29T00:16:22.760Z,13.05
2023-04-29T00:17:22.677Z,13.09
2023-04-29T00:18:22.604Z,13.11
2023-04-29T00:19:22.581Z,13.09
2023-04-29T00:20:22.565Z,13.08
2023-04-29T00:21:24.226Z,13.08
2023-04-29T00:22:22.578Z,13.08
2023-04-29T00:23:22.629Z,13.08
2023-04-29T00:24:23.228Z,13.03
2023-04-29T00:25:22.557Z,13.01
2023-04-29T00:26:24.221Z,13.03
2023-04-29T00:27:23.590Z,13.01
2023-04-29T00:28:22.569Z,13.00
2023-04-29T00:29:22.545Z,12.98
2023-04-29T00:30:22.528Z,13.03
2023-04-29T00:31:22.590Z,13.09
2023-04-29T00:32:22.578Z,13.03
2023-04-29T00:33:23.544Z,13.04
2023-04-29T00:34:23.784Z,13.03
2023-04-29T00:35:22.512Z,13.04
2023-04-29T00:36:22.519Z,13.01
2023-04-29T00:37:22.534Z,13.03
2023-04-29T00:38:22.523Z,13.04
2023-04-29T00:39:23.563Z,13.04
2023-04-29T00:40:22.514Z,13.01
2023-04-29T00:41:22.526Z,13.00
2023-04-29T00:42:22.613Z,13.01
2023-04-29T00:43:22.500Z,12.91
2023-04-29T00:44:22.487Z,13.01
2023-04-29T00:45:23.496Z,13.00
2023-04-29T00:46:22.533Z,13.01
2023-04-29T00:47:22.514Z,13.01
2023-04-29T00:48:22.492Z,12.94
2023-04-29T00:49:22.481Z,13.00
2023-04-29T00:50:22.476Z,13.05
2023-04-29T00:51:23.498Z,13.05
2023-04-29T00:52:22.476Z,13.04
2023-04-29T00:53:22.486Z,13.00
2023-04-29T00:54:22.450Z,13.04
2023-04-29T00:55:22.452Z,13.04
2023-04-29T00:56:22.441Z,13.01
2023-04-29T00:57:23.456Z,13.01
2023-04-29T00:58:22.450Z,13.00
2023-04-29T00:59:22.453Z,13.03
2023-04-29T01:00:22.446Z,13.01
2023-04-29T01:01:22.466Z,13.01
2023-04-29T01:02:22.485Z,13.03
2023-04-29T01:03:23.554Z,13.08
2023-04-29T01:04:22.479Z,13.08
2023-04-29T01:05:22.426Z,13.08
2023-04-29T01:06:22.458Z,13.11
2023-04-29T01:07:22.441Z,13.12
2023-04-29T01:08:22.523Z,13.09
2023-04-29T01:09:23.946Z,13.15
2023-04-29T01:10:22.399Z,13.09
2023-04-29T01:11:22.420Z,13.13
2023-04-29T01:12:22.450Z,13.05
2023-04-29T01:13:23.809Z,13.09
2023-04-29T01:14:22.398Z,13.03
2023-04-29T01:15:23.415Z,13.08
2023-04-29T01:16:22.449Z,13.05
2023-04-29T01:17:22.410Z,13.04
2023-04-29T01:18:22.384Z,13.00
2023-04-29T01:19:22.383Z,13.03
2023-04-29T01:20:22.406Z,12.95
2023-04-29T01:21:24.295Z,12.93
2023-04-29T01:22:22.369Z,12.94
2023-04-29T01:23:22.373Z,12.93
2023-04-29T01:24:22.370Z,12.85
2023-04-29T01:25:22.350Z,12.85
2023-04-29T01:26:22.354Z,12.83
2023-04-29T01:27:23.375Z,12.80
2023-04-29T01:28:22.338Z,12.85
2023-04-29T01:29:22.348Z,12.80
2023-04-29T01:30:22.356Z,12.80
2023-04-29T01:31:22.378Z,12.82
2023-04-29T01:32:22.326Z,12.80
2023-04-29T01:33:23.345Z,12.86
2023-04-29T01:34:22.321Z,12.83
2023-04-29T01:35:22.311Z,12.82
2023-04-29T01:36:22.312Z,12.85
2023-04-29T01:37:22.314Z,12.87
2023-04-29T01:38:22.305Z,12.82
2023-04-29T01:39:23.311Z,12.86
2023-04-29T01:40:22.297Z,12.83
2023-04-29T01:41:22.307Z,12.85
2023-04-29T01:42:23.765Z,12.82
2023-04-29T01:43:22.295Z,12.82
2023-04-29T01:44:22.290Z,12.76
2023-04-29T01:45:23.802Z,12.75
2023-04-29T01:46:23.259Z,12.78
2023-04-29T01:47:22.322Z,12.73
2023-04-29T01:48:22.298Z,12.75
2023-04-29T01:49:22.299Z,12.76
2023-04-29T01:50:22.264Z,12.75
2023-04-29T01:51:23.272Z,12.76
2023-04-29T01:52:23.250Z,12.73
2023-04-29T01:53:22.262Z,12.72
2023-04-29T01:54:22.249Z,12.76
2023-04-29T01:55:22.252Z,12.75
2023-04-29T01:56:22.734Z,12.60
2023-04-29T01:57:23.279Z,12.73
2023-04-29T01:58:22.240Z,12.62
2023-04-29T01:59:22.265Z,12.75
2023-04-29T02:00:22.248Z,12.70
2023-04-29T02:01:22.320Z,12.73
2023-04-29T02:02:22.344Z,12.67
2023-04-29T02:03:23.288Z,12.58
2023-04-29T02:04:22.246Z,12.62
2023-04-29T02:05:22.834Z,12.65
2023-04-29T02:06:22.284Z,12.62
2023-04-29T02:07:22.207Z,12.65
2023-04-29T02:08:22.230Z,12.58
2023-04-29T02:09:23.216Z,12.62
2023-04-29T02:10:22.205Z,12.60
2023-04-29T02:11:22.240Z,12.54
2023-04-29T02:12:22.186Z,12.60
2023-04-29T02:13:22.191Z,12.57
2023-04-29T02:14:22.213Z,12.64
2023-04-29T02:15:24.328Z,12.62
2023-04-29T02:16:22.267Z,12.67
2023-04-29T02:17:22.239Z,12.62
2023-04-29T02:18:22.171Z,12.58
2023-04-29T02:19:22.195Z,12.62
2023-04-29T02:20:22.199Z,12.62
2023-04-29T02:21:23.181Z,12.64
2023-04-29T02:22:22.159Z,12.58
2023-04-29T02:23:22.165Z,12.60
2023-04-29T02:24:22.174Z,12.55
2023-04-29T02:25:22.153Z,12.60
2023-04-29T02:26:22.751Z,12.58
2023-04-29T02:27:23.746Z,12.64
2023-04-29T02:28:22.159Z,12.57
2023-04-29T02:29:22.139Z,12.61
2023-04-29T02:30:22.823Z,12.60
2023-04-29T02:31:23.391Z,12.61
2023-04-29T02:32:22.475Z,12.60
2023-04-29T02:33:23.124Z,12.61
2023-04-29T02:34:22.108Z,12.62
2023-04-29T02:35:22.125Z,12.65
2023-04-29T02:36:22.152Z,12.60
2023-04-29T02:37:22.127Z,12.55
2023-04-29T02:38:22.770Z,12.58
2023-04-29T02:39:23.118Z,12.68
2023-04-29T02:40:22.117Z,12.55
2023-04-29T02:41:22.119Z,12.65
2023-04-29T02:42:22.142Z,12.50
2023-04-29T02:43:22.083Z,12.57
2023-04-29T02:44:22.079Z,12.53
2023-04-29T02:45:23.105Z,12.58
2023-04-29T02:46:22.888Z,12.54
2023-04-29T02:47:23.381Z,12.64
2023-04-29T02:48:22.111Z,12.62
2023-04-29T02:49:22.094Z,12.57
2023-04-29T02:50:22.092Z,12.55
2023-04-29T02:51:23.575Z,12.61
2023-04-29T02:52:22.113Z,12.64
2023-04-29T02:53:24.255Z,12.65
2023-04-29T02:54:22.089Z,12.60
2023-04-29T02:55:22.047Z,12.53
2023-04-29T02:56:22.057Z,12.54
2023-04-29T02:57:24.255Z,12.60
2023-04-29T02:58:22.071Z,12.54
2023-04-29T02:59:22.042Z,12.55
2023-04-29T03:00:22.034Z,12.53
2023-04-29T03:01:24.326Z,12.53
2023-04-29T03:02:22.068Z,12.55
2023-04-29T03:03:23.368Z,12.54
2023-04-29T03:04:22.274Z,12.54
2023-04-29T03:05:22.006Z,12.53
2023-04-29T03:06:21.992Z,12.46
2023-04-29T03:07:22.043Z,12.57
2023-04-29T03:08:22.012Z,12.58
2023-04-29T03:09:23.051Z,12.55
2023-04-29T03:10:22.007Z,12.55
2023-04-29T03:11:22.085Z,12.64
2023-04-29T03:12:22.538Z,12.55
2023-04-29T03:13:22.011Z,12.61
2023-04-29T03:14:21.967Z,12.60
2023-04-29T03:15:22.994Z,12.50
2023-04-29T03:16:22.080Z,12.53
2023-04-29T03:17:22.535Z,12.60
2023-04-29T03:18:21.980Z,12.58
2023-04-29T03:19:23.261Z,12.57
2023-04-29T03:20:21.969Z,12.61
2023-04-29T03:21:22.951Z,12.55
2023-04-29T03:22:22.001Z,12.57
2023-04-29T03:23:22.036Z,12.53
2023-04-29T03:24:21.949Z,12.54
2023-04-29T03:25:21.956Z,12.50
2023-04-29T03:26:22.033Z,12.58
2023-04-29T03:27:22.942Z,12.53
2023-04-29T03:28:21.924Z,12.53
2023-04-29T03:29:21.915Z,12.60
2023-04-29T03:30:22.765Z,12.54
2023-04-29T03:31:21.980Z,12.54
2023-04-29T03:32:22.869Z,12.53
2023-04-29T03:33:22.924Z,12.57
2023-04-29T03:34:21.876Z,12.58
2023-04-29T03:35:21.906Z,12.58
2023-04-29T03:36:21.893Z,12.57
2023-04-29T03:37:21.886Z,12.55
2023-04-29T03:38:22.765Z,12.57
2023-04-29T03:39:22.890Z,12.58
2023-04-29T03:40:22.770Z,12.58
2023-04-29T03:41:21.853Z,12.60
2023-04-29T03:42:21.857Z,12.54
2023-04-29T03:43:21.869Z,12.62
2023-04-29T03:44:21.877Z,12.57
2023-04-29T03:45:23.767Z,12.58
2023-04-29T03:46:21.974Z,12.65
2023-04-29T03:47:21.929Z,12.60
2023-04-29T03:48:21.841Z,12.62
2023-04-29T03:49:21.861Z,12.62
2023-04-29T03:50:23.468Z,12.61
2023-04-29T03:51:22.854Z,12.58
2023-04-29T03:52:21.857Z,12.64
2023-04-29T03:53:21.880Z,12.61
2023-04-29T03:54:21.851Z,12.58
2023-04-29T03:55:21.856Z,12.64
2023-04-29T03:56:21.862Z,12.76
2023-04-29T03:57:22.830Z,12.68
2023-04-29T03:58:21.897Z,12.72
2023-04-29T03:59:21.850Z,12.73
2023-04-29T04:00:21.787Z,12.78
2023-04-29T04:01:21.792Z,12.73
2023-04-29T04:02:21.969Z,12.73
2023-04-29T04:03:23.073Z,12.73
2023-04-29T04:04:22.093Z,12.73
2023-04-29T04:05:21.814Z,12.75
2023-04-29T04:06:21.759Z,12.76
2023-04-29T04:07:21.797Z,12.75
2023-04-29T04:08:21.780Z,12.65
2023-04-29T04:09:22.815Z,12.72
2023-04-29T04:10:21.784Z,12.75
2023-04-29T04:11:21.769Z,12.72
2023-04-29T04:12:21.792Z,12.72
2023-04-29T04:13:21.772Z,12.76
2023-04-29T04:14:22.262Z,12.73
2023-04-29T04:15:22.822Z,12.78
2023-04-29T04:16:21.818Z,12.73
2023-04-29T04:17:21.753Z,12.75
2023-04-29T04:18:23.776Z,12.67
2023-04-29T04:19:22.290Z,12.76
2023-04-29T04:20:21.739Z,12.75
2023-04-29T04:21:22.770Z,12.73
2023-04-29T04:22:21.748Z,12.73
2023-04-29T04:23:21.716Z,12.75
2023-04-29T04:24:21.732Z,12.76
2023-04-29T04:25:21.708Z,12.76
2023-04-29T04:26:21.716Z,12.76
2023-04-29T04:27:22.706Z,12.75
2023-04-29T04:28:22.927Z,12.83
2023-04-29T04:29:21.750Z,12.83
2023-04-29T04:30:21.747Z,12.85
2023-04-29T04:31:21.714Z,12.82
2023-04-29T04:32:21.700Z,12.82
2023-04-29T04:33:22.730Z,12.80
2023-04-29T04:34:21.680Z,12.83
2023-04-29T04:35:21.719Z,12.85
2023-04-29T04:36:22.276Z,12.86
2023-04-29T04:37:21.664Z,12.86
2023-04-29T04:38:21.683Z,12.83
2023-04-29T04:39:22.687Z,12.87
2023-04-29T04:40:22.283Z,12.90
2023-04-29T04:41:21.695Z,12.87
2023-04-29T04:42:21.650Z,12.91
2023-04-29T04:43:21.650Z,12.91
2023-04-29T04:44:22.280Z,12.86
2023-04-29T04:45:22.705Z,12.87
2023-04-29T04:46:21.675Z,12.93
2023-04-29T04:47:22.291Z,12.85
2023-04-29T04:48:21.634Z,12.97
2023-04-29T04:49:21.658Z,12.90
2023-04-29T04:50:21.614Z,12.87
2023-04-29T04:51:23.168Z,12.90
2023-04-29T04:52:21.601Z,12.91
2023-04-29T04:53:21.631Z,12.87
2023-04-29T04:54:21.596Z,12.87
2023-04-29T04:55:21.627Z,12.90
2023-04-29T04:56:21.598Z,12.94
2023-04-29T04:57:23.364Z,12.90
2023-04-29T04:58:21.594Z,12.94
2023-04-29T04:59:21.582Z,12.90
2023-04-29T05:00:21.621Z,12.97
2023-04-29T05:01:21.629Z,12.90
2023-04-29T05:02:21.681Z,12.90
2023-04-29T05:03:23.262Z,12.91
2023-04-29T05:04:21.707Z,12.95
2023-04-29T05:05:22.089Z,12.94
2023-04-29T05:06:21.562Z,12.90
2023-04-29T05:07:22.286Z,12.90
2023-04-29T05:08:21.557Z,12.94
2023-04-29T05:09:22.686Z,12.87
2023-04-29T05:10:21.562Z,12.90
2023-04-29T05:11:21.565Z,12.83
2023-04-29T05:12:21.541Z,12.98
2023-04-29T05:13:21.563Z,12.95
2023-04-29T05:14:21.537Z,12.95
2023-04-29T05:15:22.547Z,12.98
2023-04-29T05:16:21.605Z,12.94
2023-04-29T05:17:21.567Z,13.00
2023-04-29T05:18:21.570Z,12.98
2023-04-29T05:19:21.580Z,13.00
2023-04-29T05:20:22.290Z,12.94
2023-04-29T05:21:22.524Z,12.97
2023-04-29T05:22:21.525Z,12.98
2023-04-29T05:23:21.504Z,12.94
2023-04-29T05:24:21.500Z,12.93
2023-04-29T05:25:21.496Z,13.01
2023-04-29T05:26:21.499Z,12.97
2023-04-29T05:27:22.509Z,12.98
2023-04-29T05:28:21.504Z,13.03
2023-04-29T05:29:21.572Z,13.00
2023-04-29T05:30:22.302Z,12.97
2023-04-29T05:31:22.375Z,12.91
2023-04-29T05:32:21.524Z,12.97
2023-04-29T05:33:22.491Z,12.98
2023-04-29T05:34:21.475Z,13.01
2023-04-29T05:35:21.841Z,12.98
2023-04-29T05:36:21.468Z,12.97
2023-04-29T05:37:21.454Z,12.91
2023-04-29T05:38:21.463Z,13.00
2023-04-29T05:39:22.460Z,13.00
2023-04-29T05:40:21.440Z,13.00
2023-04-29T05:41:21.451Z,13.04
2023-04-29T05:42:21.425Z,12.98
2023-04-29T05:43:22.290Z,13.00
2023-04-29T05:44:21.434Z,12.95
2023-04-29T05:45:22.438Z,13.00
2023-04-29T05:46:22.327Z,12.94
2023-04-29T05:47:22.339Z,12.98
2023-04-29T05:48:21.472Z,12.98
2023-04-29T05:49:21.402Z,12.98
2023-04-29T05:50:21.409Z,12.95
2023-04-29T05:51:22.429Z,12.94
2023-04-29T05:52:22.791Z,12.94
2023-04-29T05:53:21.404Z,12.93
2023-04-29T05:54:21.408Z,13.00
2023-04-29T05:55:22.302Z,13.03
2023-04-29T05:56:21.390Z,13.01
2023-04-29T05:57:22.385Z,12.93
2023-04-29T05:58:22.300Z,13.00
2023-04-29T05:59:21.374Z,12.97
2023-04-29T06:00:21.471Z,12.98
2023-04-29T06:01:21.372Z,12.98
2023-04-29T06:02:21.456Z,12.97
2023-04-29T06:03:22.767Z,12.94
2023-04-29T06:04:22.105Z,12.95
2023-04-29T06:05:21.649Z,12.98
2023-04-29T06:06:21.387Z,13.01
2023-04-29T06:07:21.370Z,13.01
2023-04-29T06:08:22.297Z,12.98
2023-04-29T06:09:27.678Z,13.09
2023-04-29T06:10:21.623Z,13.01
2023-04-29T06:11:22.317Z,13.05
2023-04-29T06:12:21.347Z,13.04
2023-04-29T06:13:21.342Z,13.01
2023-04-29T06:14:21.364Z,13.05
2023-04-29T06:15:22.344Z,13.03
2023-04-29T06:16:22.808Z,13.03
2023-04-29T06:17:21.351Z,13.03
2023-04-29T06:18:21.799Z,12.97
2023-04-29T06:19:21.304Z,13.03
2023-04-29T06:20:21.314Z,13.05
2023-04-29T06:21:22.336Z,13.05
2023-04-29T06:22:21.296Z,13.08
2023-04-29T06:23:21.317Z,13.12
2023-04-29T06:24:21.289Z,13.05
2023-04-29T06:25:21.287Z,13.08
2023-04-29T06:26:21.329Z,13.08
2023-04-29T06:27:22.311Z,13.11
2023-04-29T06:28:21.280Z,13.13
2023-04-29T06:29:21.281Z,13.11
2023-04-29T06:30:21.306Z,13.18
2023-04-29T06:31:23.034Z,13.16
2023-04-29T06:32:22.813Z,13.20
2023-04-29T06:33:22.266Z,13.20
2023-04-29T06:34:21.271Z,13.16
2023-04-29T06:35:21.821Z,13.13
2023-04-29T06:36:21.249Z,13.20
2023-04-29T06:37:21.262Z,13.25
2023-04-29T06:38:21.256Z,13.18
2023-04-29T06:39:22.245Z,13.15
2023-04-29T06:40:21.810Z,13.18
2023-04-29T06:41:21.274Z,13.25
2023-04-29T06:42:21.231Z,13.28
2023-04-29T06:43:21.242Z,13.20
2023-04-29T06:44:21.279Z,13.20
2023-04-29T06:45:22.284Z,13.23
2023-04-29T06:46:21.232Z,13.23
2023-04-29T06:47:21.262Z,13.22
2023-04-29T06:48:21.234Z,13.22
2023-04-29T06:49:21.203Z,13.33
2023-04-29T06:50:21.215Z,13.31
2023-04-29T06:51:22.223Z,13.37
2023-04-29T06:52:21.206Z,13.33
2023-04-29T06:53:21.210Z,13.39
2023-04-29T06:54:21.189Z,13.37
2023-04-29T06:55:21.189Z,13.39
2023-04-29T06:56:21.193Z,13.37
2023-04-29T06:57:22.190Z,13.35
2023-04-29T06:58:21.219Z,13.38
2023-04-29T06:59:21.186Z,13.41
2023-04-29T07:00:21.177Z,13.37
2023-04-29T07:01:21.273Z,13.39
2023-04-29T07:02:21.888Z,13.35
2023-04-29T07:03:22.251Z,13.39
2023-04-29T07:04:21.923Z,13.37
2023-04-29T07:05:21.207Z,13.38
2023-04-29T07:06:22.250Z,13.37
2023-04-29T07:07:21.152Z,13.44
2023-04-29T07:08:21.246Z,13.52
2023-04-29T07:09:22.812Z,13.46
2023-04-29T07:10:21.819Z,13.38
2023-04-29T07:11:21.149Z,13.37
2023-04-29T07:12:21.159Z,13.54
2023-04-29T07:13:21.155Z,13.44
2023-04-29T07:14:21.131Z,13.42
2023-04-29T07:15:22.149Z,13.42
2023-04-29T07:16:21.154Z,13.52
2023-04-29T07:17:21.940Z,13.46
2023-04-29T07:18:21.126Z,13.47
2023-04-29T07:19:21.273Z,13.49
2023-04-29T07:20:22.502Z,13.38
2023-04-29T07:21:22.131Z,13.57
2023-04-29T07:22:21.117Z,13.38
2023-04-29T07:23:21.110Z,13.37
2023-04-29T07:24:21.822Z,13.41
2023-04-29T07:25:21.102Z,13.35
2023-04-29T07:26:21.156Z,13.37
2023-04-29T07:27:22.108Z,13.30
2023-04-29T07:28:21.121Z,13.35
2023-04-29T07:29:21.138Z,13.33
2023-04-29T07:30:21.078Z,13.31
2023-04-29T07:31:21.148Z,13.35
2023-04-29T07:32:21.868Z,13.35
2023-04-29T07:33:22.097Z,13.35
2023-04-29T07:34:21.087Z,13.33
2023-04-29T07:35:21.080Z,13.35
2023-04-29T07:36:21.129Z,13.38
2023-04-29T07:37:21.065Z,13.27
2023-04-29T07:38:21.058Z,13.19
2023-04-29T07:39:23.816Z,13.27
2023-04-29T07:40:21.058Z,13.20
2023-04-29T07:41:21.115Z,13.22
2023-04-29T07:42:21.053Z,13.23
2023-04-29T07:43:21.061Z,13.18
2023-04-29T07:44:21.056Z,13.12
2023-04-29T07:45:22.062Z,13.18
2023-04-29T07:46:21.085Z,13.13
2023-04-29T07:47:21.658Z,13.12
2023-04-29T07:48:21.038Z,13.04
2023-04-29T07:49:21.099Z,13.08
2023-04-29T07:50:21.035Z,13.11
2023-04-29T07:51:22.128Z,13.09
2023-04-29T07:52:21.017Z,13.05
2023-04-29T07:53:21.008Z,13.05
2023-04-29T07:54:21.821Z,12.97
2023-04-29T07:55:21.007Z,12.98
2023-04-29T07:56:21.010Z,13.03
2023-04-29T07:57:22.025Z,13.04
2023-04-29T07:58:21.036Z,13.08
2023-04-29T07:59:21.055Z,13.22
2023-04-29T08:00:20.981Z,13.22
2023-04-29T08:01:21.829Z,13.39
2023-04-29T08:02:21.086Z,13.44
2023-04-29T08:03:22.124Z,13.41
2023-04-29T08:04:21.169Z,13.44
2023-04-29T08:05:21.335Z,13.57
2023-04-29T08:06:21.825Z,13.65
2023-04-29T08:07:20.986Z,13.70
2023-04-29T08:08:20.967Z,13.65
2023-04-29T08:09:21.981Z,13.67
2023-04-29T08:10:21.004Z,13.65
2023-04-29T08:11:20.952Z,13.65
2023-04-29T08:12:20.968Z,13.78
2023-04-29T08:13:20.969Z,13.77
2023-04-29T08:14:20.953Z,13.71
2023-04-29T08:15:21.950Z,13.65
2023-04-29T08:16:20.994Z,13.67
2023-04-29T08:17:21.909Z,13.67
2023-04-29T08:18:20.929Z,13.60
2023-04-29T08:19:20.940Z,13.50
2023-04-29T08:20:20.956Z,13.47
2023-04-29T08:21:22.010Z,13.42
2023-04-29T08:22:20.928Z,13.47
2023-04-29T08:23:20.912Z,13.44
2023-04-29T08:24:21.894Z,13.39
2023-04-29T08:25:20.914Z,13.39
2023-04-29T08:26:20.904Z,13.35
2023-04-29T08:27:21.943Z,13.30
2023-04-29T08:28:21.831Z,13.18
2023-04-29T08:29:20.917Z,13.20
2023-04-29T08:30:21.090Z,13.11
2023-04-29T08:31:20.938Z,13.08
2023-04-29T08:32:20.928Z,13.12
2023-04-29T08:33:21.877Z,13.03
2023-04-29T08:34:20.903Z,13.05
2023-04-29T08:35:20.894Z,13.03
2023-04-29T08:36:20.887Z,13.04
2023-04-29T08:37:21.876Z,13.09
2023-04-29T08:38:20.889Z,13.05
2023-04-29T08:39:21.881Z,13.09
2023-04-29T08:40:20.968Z,13.08
2023-04-29T08:41:21.833Z,13.04
2023-04-29T08:42:20.866Z,13.00
2023-04-29T08:43:20.918Z,12.94
2023-04-29T08:44:20.941Z,12.93
2023-04-29T08:45:21.870Z,12.95
2023-04-29T08:46:21.451Z,12.98
2023-04-29T08:47:21.011Z,12.86
2023-04-29T08:48:20.998Z,12.98
2023-04-29T08:49:20.981Z,12.94
2023-04-29T08:50:20.928Z,12.95
2023-04-29T08:51:21.834Z,12.82
2023-04-29T08:52:20.895Z,12.85
2023-04-29T08:53:20.807Z,12.85
2023-04-29T08:54:21.338Z,12.80
2023-04-29T08:55:20.801Z,12.82
2023-04-29T08:56:20.858Z,12.72
2023-04-29T08:57:21.826Z,12.73
2023-04-29T08:58:20.798Z,12.75
2023-04-29T08:59:20.793Z,12.73
2023-04-29T09:00:20.856Z,12.79
2023-04-29T09:01:20.848Z,12.73
2023-04-29T09:02:20.830Z,12.78
2023-04-29T09:03:22.251Z,12.76
2023-04-29T09:04:20.884Z,12.79
2023-04-29T09:05:20.803Z,12.78
2023-04-29T09:06:20.791Z,12.75
2023-04-29T09:07:20.776Z,12.72
2023-04-29T09:08:20.789Z,12.76
2023-04-29T09:09:21.763Z,12.73
2023-04-29T09:10:20.788Z,12.72
2023-04-29T09:11:20.842Z,12.90
2023-04-29T09:12:20.882Z,12.83
2023-04-29T09:13:20.764Z,12.82
2023-04-29T09:14:20.778Z,12.82
2023-04-29T09:15:21.785Z,12.86
2023-04-29T09:16:20.775Z,12.82
2023-04-29T09:17:20.873Z,12.86
2023-04-29T09:18:20.826Z,12.86
2023-04-29T09:19:20.745Z,12.80
2023-04-29T09:20:20.803Z,12.72
2023-04-29T09:21:22.818Z,12.60
2023-04-29T09:22:21.347Z,12.65
2023-04-29T09:23:20.784Z,12.60
2023-04-29T09:24:20.808Z,12.62
2023-04-29T09:25:20.994Z,12.57
2023-04-29T09:26:20.718Z,12.64
2023-04-29T09:27:21.725Z,12.61
2023-04-29T09:28:21.364Z,12.73
2023-04-29T09:29:20.705Z,12.73
2023-04-29T09:30:21.353Z,12.68
2023-04-29T09:31:20.820Z,12.78
2023-04-29T09:32:20.778Z,12.83
2023-04-29T09:33:21.694Z,12.83
2023-04-29T09:34:20.668Z,12.82
2023-04-29T09:35:20.665Z,12.93
2023-04-29T09:36:20.743Z,13.00
2023-04-29T09:37:20.662Z,12.95
2023-04-29T09:38:20.700Z,12.93
2023-04-29T09:39:21.676Z,12.86
2023-04-29T09:40:20.700Z,12.85
2023-04-29T09:41:20.737Z,12.94
2023-04-29T09:42:20.677Z,12.91
2023-04-29T09:43:20.645Z,12.82
2023-04-29T09:44:20.685Z,12.86
2023-04-29T09:45:21.679Z,12.82
2023-04-29T09:46:20.694Z,12.83
2023-04-29T09:47:20.742Z,12.82
2023-04-29T09:48:20.703Z,12.82
2023-04-29T09:49:20.717Z,12.83
2023-04-29T09:50:20.624Z,12.82
2023-04-29T09:51:21.673Z,12.85
2023-04-29T09:52:20.613Z,12.82
2023-04-29T09:53:20.629Z,12.73
2023-04-29T09:54:20.715Z,12.82
2023-04-29T09:55:20.705Z,12.75
2023-04-29T09:56:20.690Z,12.78
2023-04-29T09:57:21.653Z,12.76
2023-04-29T09:58:20.652Z,12.64
2023-04-29T09:59:20.669Z,12.62
2023-04-29T10:00:20.613Z,12.67
2023-04-29T10:01:20.703Z,12.62
2023-04-29T10:02:35.560Z,12.64
2023-04-29T10:03:21.640Z,12.72
2023-04-29T10:04:20.603Z,12.79
2023-04-29T10:05:20.592Z,12.95
2023-04-29T10:06:20.680Z,13.01
2023-04-29T10:07:20.595Z,13.19
2023-04-29T10:08:20.597Z,13.33
2023-04-29T10:09:21.658Z,13.46
2023-04-29T10:10:20.747Z,13.44
2023-04-29T10:11:20.594Z,13.37
2023-04-29T10:12:20.719Z,13.49
2023-04-29T10:13:20.560Z,13.46
2023-04-29T10:14:20.545Z,13.33
2023-04-29T10:15:21.591Z,13.39
2023-04-29T10:16:20.598Z,13.38
2023-04-29T10:17:20.543Z,13.37
2023-04-29T10:18:20.594Z,13.33
2023-04-29T10:19:20.543Z,13.20
2023-04-29T10:20:20.525Z,13.19
2023-04-29T10:21:21.511Z,13.20
2023-04-29T10:22:20.522Z,13.20
2023-04-29T10:23:20.509Z,13.23
2023-04-29T10:24:20.518Z,13.18
2023-04-29T10:25:20.515Z,13.11
2023-04-29T10:26:20.610Z,13.16
2023-04-29T10:27:21.946Z,13.11
2023-04-29T10:28:20.506Z,13.15
2023-04-29T10:29:20.495Z,13.12
2023-04-29T10:30:20.498Z,13.13
2023-04-29T10:31:20.521Z,13.12
2023-04-29T10:32:20.477Z,13.08
2023-04-29T10:33:21.519Z,13.12
2023-04-29T10:34:21.362Z,13.04
2023-04-29T10:35:20.521Z,13.05
2023-04-29T10:36:20.499Z,13.04
2023-04-29T10:37:20.465Z,12.95
2023-04-29T10:38:20.478Z,13.01
2023-04-29T10:39:21.504Z,13.01
2023-04-29T10:40:21.390Z,12.98
2023-04-29T10:41:20.463Z,12.98
2023-04-29T10:42:21.441Z,12.85
2023-04-29T10:43:20.446Z,12.90
2023-04-29T10:44:20.436Z,12.93
2023-04-29T10:45:21.504Z,12.90
2023-04-29T10:46:20.501Z,12.87
2023-04-29T10:47:20.435Z,12.91
2023-04-29T10:48:20.417Z,12.91
2023-04-29T10:49:20.428Z,12.79
2023-04-29T10:50:20.403Z,12.85
2023-04-29T10:51:21.426Z,12.82
2023-04-29T10:52:20.449Z,12.79
2023-04-29T10:53:20.439Z,12.90
2023-04-29T10:54:20.414Z,12.97
2023-04-29T10:55:20.396Z,12.93
2023-04-29T10:56:20.420Z,12.95
2023-04-29T10:57:21.449Z,13.01
2023-04-29T10:58:21.376Z,13.03
2023-04-29T10:59:20.478Z,13.05
2023-04-29T11:00:20.396Z,13.00
2023-04-29T11:01:20.403Z,12.95
2023-04-29T11:02:20.379Z,12.94
2023-04-29T11:03:21.543Z,12.85
2023-04-29T11:04:20.932Z,12.82
2023-04-29T11:05:20.388Z,12.85
2023-04-29T11:06:20.388Z,12.80
2023-04-29T11:07:20.391Z,12.82
2023-04-29T11:08:20.878Z,12.80
2023-04-29T11:09:21.358Z,12.87
2023-04-29T11:10:20.456Z,12.80
2023-04-29T11:11:20.365Z,12.80
2023-04-29T11:12:20.348Z,12.70
2023-04-29T11:13:20.345Z,12.79
2023-04-29T11:14:20.337Z,12.70
2023-04-29T11:15:21.871Z,12.73
2023-04-29T11:16:20.428Z,12.76
2023-04-29T11:17:20.354Z,12.75
2023-04-29T11:18:20.334Z,12.75
2023-04-29T11:19:20.316Z,12.65
2023-04-29T11:20:20.362Z,12.85
2023-04-29T11:21:21.352Z,12.83
2023-04-29T11:22:20.322Z,12.85
2023-04-29T11:23:20.314Z,12.91
2023-04-29T11:24:20.298Z,12.94
2023-04-29T11:25:20.324Z,12.98
2023-04-29T11:26:20.320Z,12.94
2023-04-29T11:27:21.314Z,13.01
2023-04-29T11:28:20.319Z,13.01
2023-04-29T11:29:20.310Z,12.98
2023-04-29T11:30:20.299Z,13.03
2023-04-29T11:31:20.351Z,13.04
2023-04-29T11:32:20.323Z,12.95
2023-04-29T11:33:21.330Z,13.01
2023-04-29T11:34:20.263Z,13.03
2023-04-29T11:35:20.281Z,13.04
2023-04-29T11:36:20.273Z,13.03
2023-04-29T11:37:20.275Z,13.09
2023-04-29T11:38:20.274Z,13.11
2023-04-29T11:39:21.284Z,13.09
2023-04-29T11:40:20.876Z,13.20
2023-04-29T11:41:20.248Z,13.19
2023-04-29T11:42:20.250Z,13.31
2023-04-29T11:43:20.244Z,13.35
2023-04-29T11:44:20.882Z,13.39
2023-04-29T11:45:21.274Z,13.47
2023-04-29T11:46:20.322Z,13.54
2023-04-29T11:47:20.320Z,13.47
2023-04-29T11:48:20.252Z,13.46
2023-04-29T11:49:20.237Z,13.44
2023-04-29T11:50:21.078Z,13.50
2023-04-29T11:51:21.232Z,13.54
2023-04-29T11:52:20.211Z,13.62
2023-04-29T11:53:20.230Z,13.62
2023-04-29T11:54:20.224Z,13.68
2023-04-29T11:55:20.218Z,13.70
2023-04-29T11:56:20.212Z,13.79
2023-04-29T11:57:21.230Z,13.78
2023-04-29T11:58:20.214Z,13.93
2023-04-29T11:59:20.898Z,13.92
2023-04-29T12:00:20.233Z,13.92
2023-04-29T12:01:20.198Z,13.93
2023-04-29T12:02:20.361Z,13.92
2023-04-29T12:03:21.378Z,13.86
2023-04-29T12:04:20.502Z,13.90
2023-04-29T12:05:20.346Z,13.92
2023-04-29T12:06:20.214Z,13.85
2023-04-29T12:07:20.194Z,13.92
2023-04-29T12:08:20.197Z,13.90
2023-04-29T12:09:21.203Z,13.85
2023-04-29T12:10:20.228Z,13.90
2023-04-29T12:11:20.180Z,13.89
2023-04-29T12:12:20.212Z,13.92
2023-04-29T12:13:20.216Z,13.92
2023-04-29T12:14:20.181Z,13.90
2023-04-29T12:15:21.180Z,13.78
2023-04-29T12:16:20.182Z,13.83
2023-04-29T12:17:20.161Z,13.79
2023-04-29T12:18:20.169Z,13.79
2023-04-29T12:19:20.177Z,13.77
2023-04-29T12:20:20.895Z,13.72
2023-04-29T12:21:21.184Z,13.71
2023-04-29T12:22:20.177Z,13.74
2023-04-29T12:23:20.208Z,13.74
2023-04-29T12:24:20.168Z,13.74
2023-04-29T12:25:20.162Z,13.71
2023-04-29T12:26:20.160Z,13.65
2023-04-29T12:27:21.902Z,13.65
2023-04-29T12:28:20.140Z,13.60
2023-04-29T12:29:20.144Z,13.57
2023-04-29T12:30:20.174Z,13.57
2023-04-29T12:31:20.225Z,13.54
2023-04-29T12:32:20.143Z,13.59
2023-04-29T12:33:21.908Z,13.52
2023-04-29T12:34:20.148Z,13.62
2023-04-29T12:35:22.960Z,13.57
2023-04-29T12:36:20.165Z,13.62
2023-04-29T12:37:21.025Z,13.54
2023-04-29T12:38:20.099Z,13.54
2023-04-29T12:39:21.893Z,13.65
2023-04-29T12:40:20.108Z,13.68
2023-04-29T12:41:20.104Z,13.68
2023-04-29T12:42:20.182Z,13.71
2023-04-29T12:43:20.236Z,13.86
2023-04-29T12:44:20.109Z,13.79
2023-04-29T12:45:21.098Z,13.89
2023-04-29T12:46:20.087Z,13.89
2023-04-29T12:47:20.197Z,13.87
2023-04-29T12:48:29.787Z,13.86
2023-04-29T12:49:20.070Z,13.89
2023-04-29T12:50:20.121Z,13.90
2023-04-29T12:51:21.094Z,13.87
2023-04-29T12:52:20.084Z,13.89